Time;durP1;ratioP1;P1;durP2;ratioP2;P2;SDS_P1;SDS_P2;PMS_P1;PMS_P2;Temp;Humidity;BMP_temperature;BMP_pressure;BME280_temperature;BME280_humidity;BME280_pressure;Samples;Min_cycle;Max_cycle;Signal;HPM_P1;HPM_P2
2021/04/08 00:01:55;;;;;;;6.03;1.95;;;1.00;94.60;;;;;;5044264;28;20468;-78
2021/04/08 00:04:21;;;;;;;11.32;2.65;;;1.00;94.60;;;;;;5018241;28;20045;-78
2021/04/08 00:06:46;;;;;;;1.65;0.95;;;1.00;94.70;;;;;;5007862;28;20469;-78
2021/04/08 00:09:12;;;;;;;11.68;3.00;;;0.80;94.50;;;;;;5007474;28;20104;-78
2021/04/08 00:11:37;;;;;;;5.63;2.50;;;0.90;94.30;;;;;;5021647;28;20034;-77
2021/04/08 00:14:03;;;;;;;9.30;2.28;;;0.90;94.70;;;;;;5025635;28;20148;-78
2021/04/08 00:16:28;;;;;;;10.85;4.13;;;0.80;94.80;;;;;;5039499;28;20040;-77
2021/04/08 00:18:54;;;;;;;3.03;2.53;;;0.90;94.90;;;;;;5024306;28;20480;-77
2021/04/08 00:21:19;;;;;;;5.38;2.40;;;0.90;94.80;;;;;;5035418;28;20022;-77
2021/04/08 00:23:45;;;;;;;8.10;2.80;;;0.90;94.80;;;;;;5022087;28;20037;-76
2021/04/08 00:26:10;;;;;;;11.15;2.70;;;0.90;95.00;;;;;;5026174;28;20033;-77
2021/04/08 00:28:36;;;;;;;12.30;3.92;;;0.90;94.90;;;;;;5024086;28;20033;-77
2021/04/08 00:31:01;;;;;;;10.10;3.05;;;0.80;94.40;;;;;;5025728;28;20644;-76
2021/04/08 00:33:27;;;;;;;8.80;2.88;;;0.80;94.90;;;;;;5022126;28;20108;-77
2021/04/08 00:35:52;;;;;;;5.45;1.90;;;0.80;95.10;;;;;;5022507;28;20033;-76
2021/04/08 00:38:18;;;;;;;6.38;2.15;;;0.60;94.50;;;;;;5021791;28;20044;-77
2021/04/08 00:40:44;;;;;;;6.22;2.38;;;0.80;95.00;;;;;;5006131;28;20036;-77
2021/04/08 00:43:09;;;;;;;6.85;3.17;;;0.80;94.70;;;;;;5025772;28;20039;-77
2021/04/08 00:45:35;;;;;;;8.60;3.10;;;0.70;94.60;;;;;;5021786;28;20073;-77
2021/04/08 00:48:00;;;;;;;6.72;1.67;;;0.80;94.90;;;;;;5005286;28;20037;-77
2021/04/08 00:50:26;;;;;;;14.85;3.72;;;0.80;94.80;;;;;;5007675;28;20079;-77
2021/04/08 00:52:59;;;;;;;12.55;3.05;;;0.80;94.60;;;;;;5022785;28;20030;-77
2021/04/08 00:55:36;;;;;;;10.38;3.35;;;0.60;94.70;;;;;;5022341;28;20029;-77
2021/04/08 00:58:03;;;;;;;9.23;3.55;;;0.70;94.70;;;;;;5002792;28;20088;-77
2021/04/08 01:00:29;;;;;;;9.35;4.78;;;0.60;94.90;;;;;;5023311;28;20278;-77
2021/04/08 01:02:55;;;;;;;7.32;3.30;;;0.60;94.70;;;;;;5005735;28;20030;-76
2021/04/08 01:05:20;;;;;;;8.75;3.40;;;0.60;95.10;;;;;;4993421;28;20091;-77
2021/04/08 01:07:46;;;;;;;9.85;5.30;;;0.60;94.60;;;;;;5002816;28;20109;-77
2021/04/08 01:10:12;;;;;;;7.85;3.03;;;0.60;94.80;;;;;;5010328;28;20033;-77
2021/04/08 01:12:37;;;;;;;7.97;3.75;;;0.40;94.70;;;;;;5018941;28;20041;-77
2021/04/08 01:15:04;;;;;;;8.93;4.10;;;0.50;95.00;;;;;;5024902;28;20029;-77
2021/04/08 01:17:50;;;;;;;6.85;4.43;;;0.40;94.90;;;;;;5019197;28;20121;-77
2021/04/08 01:20:49;;;;;;;11.35;3.67;;;0.40;95.10;;;;;;5022877;28;20030;-77
2021/04/08 01:23:33;;;;;;;12.13;4.07;;;0.40;95.10;;;;;;5021174;28;20036;-78
2021/04/08 01:26:15;;;;;;;12.45;4.30;;;0.50;94.90;;;;;;5040129;28;20454;-77
2021/04/08 01:28:45;;;;;;;12.75;4.15;;;0.40;94.40;;;;;;5038363;28;20034;-77
2021/04/08 01:31:11;;;;;;;8.55;2.67;;;0.40;94.70;;;;;;5022875;28;20052;-78
2021/04/08 01:33:55;;;;;;;3.92;1.98;;;0.50;94.60;;;;;;5005173;28;20030;-77
2021/04/08 01:36:26;;;;;;;6.65;2.22;;;0.50;94.70;;;;;;5018873;28;20036;-77
2021/04/08 01:38:58;;;;;;;7.35;2.72;;;0.50;94.80;;;;;;5003898;28;20645;-77
2021/04/08 01:41:23;;;;;;;13.45;3.83;;;0.40;94.70;;;;;;5038549;28;20058;-77
2021/04/08 01:43:50;;;;;;;3.65;2.50;;;0.40;94.90;;;;;;5021479;28;20038;-77
2021/04/08 01:46:15;;;;;;;7.90;2.85;;;0.40;94.80;;;;;;5034578;28;20338;-76
2021/04/08 01:48:42;;;;;;;9.23;3.63;;;0.50;94.80;;;;;;5019374;28;20040;-76
2021/04/08 01:51:08;;;;;;;5.50;2.22;;;0.40;94.90;;;;;;5036908;28;20030;-77
2021/04/08 01:53:36;;;;;;;4.53;1.55;;;0.40;94.90;;;;;;5036523;28;20029;-77
2021/04/08 01:56:02;;;;;;;4.38;2.20;;;0.50;95.00;;;;;;4986043;28;20092;-76
2021/04/08 01:58:28;;;;;;;10.93;4.20;;;0.50;94.70;;;;;;5002676;28;20053;-77
2021/04/08 02:00:53;;;;;;;4.97;2.30;;;0.50;94.80;;;;;;5004346;28;20030;-76
2021/04/08 02:03:19;;;;;;;8.73;2.85;;;0.40;94.80;;;;;;5006473;28;20044;-77
2021/04/08 02:05:44;;;;;;;5.88;3.50;;;0.50;94.80;;;;;;5021009;28;20044;-76
2021/04/08 02:08:10;;;;;;;6.82;2.03;;;0.50;94.90;;;;;;4989624;28;20055;-77
2021/04/08 02:10:36;;;;;;;4.88;1.60;;;0.40;95.10;;;;;;5018848;28;20080;-77
2021/04/08 02:13:02;;;;;;;2.75;1.65;;;0.40;95.10;;;;;;5022215;28;20029;-77
2021/04/08 02:15:28;;;;;;;8.68;4.18;;;0.40;95.00;;;;;;5016369;28;20017;-77
2021/04/08 02:17:55;;;;;;;14.32;4.97;;;0.30;95.00;;;;;;5020240;28;20055;-77
2021/04/08 02:20:22;;;;;;;10.30;3.58;;;0.30;94.90;;;;;;5019846;28;20033;-77
2021/04/08 02:22:51;;;;;;;10.63;4.75;;;0.30;95.00;;;;;;4996145;28;20036;-77
2021/04/08 02:25:16;;;;;;;9.25;3.75;;;0.30;94.80;;;;;;5032241;28;20221;-76
2021/04/08 02:27:43;;;;;;;5.60;3.30;;;0.20;94.90;;;;;;4993407;28;20120;-76
2021/04/08 02:30:14;;;;;;;8.57;3.15;;;0.30;95.10;;;;;;5010351;28;20030;-77
2021/04/08 02:32:39;;;;;;;6.93;3.47;;;0.20;95.20;;;;;;5003785;28;20572;-77
2021/04/08 02:35:10;;;;;;;2.25;0.95;;;0.20;95.10;;;;;;5034837;28;20157;-77
2021/04/08 02:37:35;;;;;;;18.73;3.40;;;0.30;95.20;;;;;;5004662;28;20049;-77
2021/04/08 02:40:02;;;;;;;3.92;1.63;;;0.30;95.00;;;;;;5038749;28;20529;-76
2021/04/08 02:42:28;;;;;;;6.88;3.17;;;0.30;95.00;;;;;;5021444;28;20026;-76
2021/04/08 02:44:53;;;;;;;14.30;5.28;;;0.30;95.00;;;;;;5019450;28;20504;-76
2021/04/08 02:47:19;;;;;;;4.90;2.28;;;0.30;94.80;;;;;;5039231;28;20392;-77
2021/04/08 02:49:44;;;;;;;10.52;3.10;;;0.30;95.00;;;;;;5009687;28;20034;-75
2021/04/08 02:52:11;;;;;;;8.20;3.47;;;0.30;95.20;;;;;;5011401;28;20049;-75
2021/04/08 02:54:38;;;;;;;9.63;4.53;;;0.30;95.10;;;;;;5024297;28;20124;-74
2021/04/08 02:57:04;;;;;;;7.05;2.35;;;0.30;95.10;;;;;;5025235;28;20037;-74
2021/04/08 02:59:49;;;;;;;10.63;4.18;;;0.30;95.30;;;;;;5008867;28;20029;-75
2021/04/08 03:02:20;;;;;;;13.43;5.50;;;0.30;95.30;;;;;;5022584;28;20072;-75
2021/04/08 03:04:49;;;;;;;9.60;4.35;;;0.30;95.30;;;;;;5008208;28;20668;-76
2021/04/08 03:07:19;;;;;;;9.15;4.65;;;0.30;95.10;;;;;;5020929;28;20037;-75
2021/04/08 03:09:44;;;;;;;10.27;5.30;;;0.30;95.10;;;;;;5024480;28;20465;-74
2021/04/08 03:12:10;;;;;;;1.83;1.27;;;0.20;95.00;;;;;;5010906;28;20048;-75
2021/04/08 03:14:44;;;;;;;4.65;2.28;;;0.30;95.40;;;;;;5021717;28;20084;-74
2021/04/08 03:17:09;;;;;;;14.73;5.72;;;0.20;95.30;;;;;;5010570;28;20103;-75
2021/04/08 03:19:35;;;;;;;14.02;4.57;;;0.10;95.00;;;;;;5010035;28;20532;-75
2021/04/08 03:22:01;;;;;;;11.20;5.65;;;0.20;95.30;;;;;;5027192;28;20035;-75
2021/04/08 03:24:27;;;;;;;3.38;1.90;;;0.30;95.20;;;;;;5007687;28;20410;-75
2021/04/08 03:26:52;;;;;;;5.90;2.75;;;0.30;95.30;;;;;;4990947;28;20037;-74
2021/04/08 03:29:18;;;;;;;31.92;4.18;;;0.30;95.20;;;;;;5022334;28;20116;-74
2021/04/08 03:31:43;;;;;;;12.73;5.57;;;0.20;95.20;;;;;;5011370;28;20514;-75
2021/04/08 03:34:09;;;;;;;6.63;3.92;;;0.00;94.70;;;;;;5023711;28;20041;-75
2021/04/08 03:36:35;;;;;;;11.05;4.90;;;0.10;95.20;;;;;;5021379;28;20057;-75
2021/04/08 03:39:00;;;;;;;5.47;2.28;;;0.10;95.60;;;;;;5002281;28;20472;-75
2021/04/08 03:41:26;;;;;;;16.88;6.15;;;0.20;95.20;;;;;;5038250;28;20029;-75
2021/04/08 03:43:51;;;;;;;12.38;3.72;;;0.10;95.20;;;;;;5024191;28;20033;-75
2021/04/08 03:46:17;;;;;;;11.85;4.25;;;0.20;95.20;;;;;;5037498;28;20049;-75
2021/04/08 03:48:43;;;;;;;10.75;3.88;;;0.20;95.20;;;;;;5020527;28;20048;-74
2021/04/08 03:51:09;;;;;;;10.15;3.20;;;0.20;95.20;;;;;;5025010;28;20029;-75
2021/04/08 03:53:35;;;;;;;15.57;5.32;;;0.20;95.40;;;;;;5041962;28;20057;-75
2021/04/08 03:56:01;;;;;;;9.70;4.18;;;0.20;95.50;;;;;;5021360;28;20073;-75
2021/04/08 03:58:26;;;;;;;15.02;3.78;;;0.10;95.20;;;;;;5004992;28;20060;-75
2021/04/08 04:00:52;;;;;;;13.25;4.25;;;0.20;95.30;;;;;;5016935;28;20033;-76
2021/04/08 04:03:18;;;;;;;4.50;2.53;;;0.30;95.40;;;;;;5041906;28;20033;-75
2021/04/08 04:05:43;;;;;;;8.65;4.00;;;0.30;95.30;;;;;;5024190;28;20362;-74
2021/04/08 04:08:10;;;;;;;4.93;2.03;;;0.30;95.30;;;;;;5025569;28;20048;-74
2021/04/08 04:10:36;;;;;;;13.32;4.13;;;0.30;95.20;;;;;;5017750;28;20148;-74
2021/04/08 04:13:02;;;;;;;8.18;2.90;;;0.40;95.30;;;;;;5023633;28;20034;-75
2021/04/08 04:15:28;;;;;;;12.50;3.38;;;0.30;95.40;;;;;;5021139;28;20044;-74
2021/04/08 04:17:53;;;;;;;5.20;2.20;;;0.30;95.60;;;;;;5009634;28;20540;-75
2021/04/08 04:20:20;;;;;;;11.20;4.55;;;0.40;95.50;;;;;;5022423;28;20026;-74
2021/04/08 04:22:45;;;;;;;7.18;3.38;;;0.40;95.50;;;;;;5021657;28;20038;-75
2021/04/08 04:25:12;;;;;;;8.25;2.65;;;0.30;95.40;;;;;;5025521;28;20060;-74
2021/04/08 04:27:37;;;;;;;8.43;3.72;;;0.30;95.40;;;;;;5023339;28;20036;-74
2021/04/08 04:30:04;;;;;;;8.85;2.67;;;0.40;95.50;;;;;;5025213;28;20025;-75
2021/04/08 04:32:30;;;;;;;4.93;2.75;;;0.40;95.30;;;;;;5021323;28;20033;-75
2021/04/08 04:34:55;;;;;;;7.75;2.67;;;0.50;95.40;;;;;;5021747;28;20040;-74
2021/04/08 04:37:21;;;;;;;6.22;2.42;;;0.50;95.70;;;;;;5008035;28;20092;-76
2021/04/08 04:39:46;;;;;;;9.95;3.38;;;0.50;95.60;;;;;;5005689;28;20030;-77
2021/04/08 04:42:12;;;;;;;16.00;6.07;;;0.50;95.50;;;;;;5025191;28;20029;-77
2021/04/08 04:44:38;;;;;;;4.95;2.08;;;0.50;95.60;;;;;;5007373;28;20025;-76
2021/04/08 04:47:04;;;;;;;8.40;3.60;;;0.60;95.40;;;;;;5033539;28;20041;-77
2021/04/08 04:49:29;;;;;;;15.70;3.63;;;0.60;95.40;;;;;;5004785;28;20030;-76
2021/04/08 04:51:55;;;;;;;8.00;2.70;;;0.60;95.20;;;;;;5019909;28;20164;-77
2021/04/08 04:54:21;;;;;;;9.43;1.60;;;0.70;95.10;;;;;;5018359;28;20040;-76
2021/04/08 04:56:46;;;;;;;9.10;3.03;;;0.70;95.20;;;;;;5004894;28;20551;-76
2021/04/08 04:59:12;;;;;;;5.72;2.15;;;0.70;95.30;;;;;;5021809;28;20038;-77
2021/04/08 05:01:37;;;;;;;12.45;4.22;;;0.70;95.40;;;;;;5007440;28;20582;-77
2021/04/08 05:04:03;;;;;;;11.95;4.20;;;0.60;95.60;;;;;;5024450;28;20492;-76
2021/04/08 05:06:29;;;;;;;16.42;3.92;;;0.60;95.50;;;;;;5039109;28;20033;-77
2021/04/08 05:08:54;;;;;;;8.00;2.60;;;0.70;95.40;;;;;;5023472;28;20095;-77
2021/04/08 05:11:20;;;;;;;9.15;3.42;;;0.70;95.40;;;;;;5018695;28;20072;-77
2021/04/08 05:13:45;;;;;;;6.45;1.77;;;0.70;95.50;;;;;;5004637;28;20038;-77
2021/04/08 05:16:11;;;;;;;11.02;4.20;;;0.80;95.30;;;;;;5001725;28;20581;-77
2021/04/08 05:18:36;;;;;;;6.78;2.72;;;0.80;95.20;;;;;;5002685;28;20050;-77
2021/04/08 05:21:02;;;;;;;5.15;2.10;;;0.80;95.10;;;;;;5022047;28;20021;-77
2021/04/08 05:23:28;;;;;;;12.20;3.35;;;0.90;95.00;;;;;;5019326;28;20033;-77
2021/04/08 05:25:53;;;;;;;10.15;4.00;;;0.90;95.00;;;;;;5018703;28;20022;-77
2021/04/08 05:28:19;;;;;;;5.88;3.55;;;0.80;95.20;;;;;;5020902;28;20033;-76
2021/04/08 05:30:51;;;;;;;9.13;3.05;;;0.80;95.50;;;;;;5042365;27;20351;-78
2021/04/08 05:33:16;;;;;;;3.83;1.65;;;0.80;95.40;;;;;;5025752;28;20095;-78
2021/04/08 05:35:42;;;;;;;10.95;2.97;;;0.90;95.30;;;;;;5035409;28;20404;-79
2021/04/08 05:38:07;;;;;;;3.35;1.92;;;1.00;95.10;;;;;;5022118;28;20040;-78
2021/04/08 05:40:33;;;;;;;3.22;1.17;;;1.00;95.10;;;;;;5028482;28;20029;-78
2021/04/08 05:42:58;;;;;;;7.63;3.15;;;0.90;95.20;;;;;;5026722;28;20037;-78
2021/04/08 05:45:27;;;;;;;4.80;2.10;;;1.00;95.20;;;;;;5025170;28;20691;-78
2021/04/08 05:47:52;;;;;;;1.80;1.15;;;1.00;95.20;;;;;;5019670;28;20037;-79
2021/04/08 05:50:18;;;;;;;7.50;2.67;;;1.10;95.20;;;;;;5017430;28;20034;-78
2021/04/08 05:52:43;;;;;;;15.98;3.95;;;1.10;95.10;;;;;;5017672;28;20037;-79
2021/04/08 05:55:09;;;;;;;3.78;1.92;;;1.00;95.10;;;;;;5035148;28;20030;-79
2021/04/08 05:57:35;;;;;;;2.00;1.42;;;1.10;94.90;;;;;;5019179;28;20108;-79
2021/04/08 06:00:01;;;;;;;7.75;2.30;;;1.20;94.80;;;;;;5023413;28;20498;-78
2021/04/08 06:02:28;;;;;;;9.60;3.35;;;1.20;95.00;;;;;;5020135;28;20033;-79
2021/04/08 06:04:54;;;;;;;11.75;2.75;;;1.20;95.20;;;;;;5002759;28;20087;-79
2021/04/08 06:07:19;;;;;;;9.23;3.88;;;1.20;94.90;;;;;;5010127;28;20488;-79
2021/04/08 06:09:45;;;;;;;4.68;1.65;;;1.20;94.80;;;;;;5010395;28;20505;-78
2021/04/08 06:12:11;;;;;;;11.65;3.75;;;1.30;94.80;;;;;;5018049;28;20492;-79
2021/04/08 06:14:37;;;;;;;6.65;3.47;;;1.30;94.90;;;;;;4982595;28;20069;-79
2021/04/08 06:17:04;;;;;;;3.67;1.90;;;1.30;95.10;;;;;;5032569;28;20034;-80
2021/04/08 06:19:29;;;;;;;6.80;3.00;;;1.30;95.20;;;;;;5024955;28;20033;-80
2021/04/08 06:21:55;;;;;;;6.82;3.80;;;1.40;95.40;;;;;;5016020;28;20037;-79
2021/04/08 06:24:20;;;;;;;10.90;3.80;;;1.40;95.30;;;;;;5007472;28;20135;-78
2021/04/08 06:26:46;;;;;;;12.15;3.17;;;1.40;95.00;;;;;;5012020;28;20463;-80
2021/04/08 06:29:11;;;;;;;12.65;4.93;;;1.50;95.00;;;;;;5009127;28;20037;-79
2021/04/08 06:31:37;;;;;;;11.15;4.30;;;1.50;95.00;;;;;;5023527;28;20030;-80
2021/04/08 06:34:03;;;;;;;13.05;3.92;;;1.50;95.10;;;;;;5005993;28;20041;-80
2021/04/08 06:36:28;;;;;;;7.90;3.83;;;1.50;95.30;;;;;;4996099;28;20030;-79
2021/04/08 06:38:54;;;;;;;13.75;3.97;;;1.60;95.20;;;;;;5030030;28;20496;-80
2021/04/08 06:41:19;;;;;;;14.73;8.20;;;1.60;95.30;;;;;;5000774;28;20698;-79
2021/04/08 06:43:45;;;;;;;11.73;4.50;;;1.60;95.40;;;;;;4984159;28;20040;-80
2021/04/08 06:46:19;;;;;;;12.43;6.40;;;1.70;95.00;;;;;;4975950;28;20041;-82
2021/04/08 06:48:51;;;;;;;13.60;7.57;;;1.70;95.00;;;;;;4968805;28;20141;-80
2021/04/08 06:51:20;;;;;;;12.25;6.78;;;1.70;95.20;;;;;;4977733;28;20021;-78
2021/04/08 06:53:49;;;;;;;8.13;4.85;;;1.80;95.30;;;;;;4988737;28;20115;-78
2021/04/08 06:56:14;;;;;;;19.38;8.70;;;1.80;95.20;;;;;;5002514;28;20045;-79
2021/04/08 06:58:40;;;;;;;6.75;3.58;;;1.90;95.30;;;;;;5001467;28;20046;-79
2021/04/08 07:01:09;;;;;;;9.18;5.22;;;2.00;95.00;;;;;;5005821;28;20038;-79
2021/04/08 07:03:35;;;;;;;11.90;4.13;;;2.00;94.80;;;;;;4996657;28;20034;-79
2021/04/08 07:06:02;;;;;;;15.75;9.05;;;2.10;94.90;;;;;;4996924;28;20026;-77
2021/04/08 07:08:29;;;;;;;14.23;6.05;;;2.20;94.80;;;;;;4976733;28;20053;-79
2021/04/08 07:10:55;;;;;;;7.43;3.90;;;2.20;94.70;;;;;;4996905;28;20053;-79
2021/04/08 07:13:21;;;;;;;15.93;7.28;;;2.30;94.70;;;;;;5012543;28;20060;-79
2021/04/08 07:15:46;;;;;;;18.70;7.88;;;2.40;95.10;;;;;;5005031;28;20359;-79
2021/04/08 07:18:12;;;;;;;13.02;6.22;;;2.40;94.30;;;;;;4988212;28;20359;-80
2021/04/08 07:20:38;;;;;;;14.82;7.13;;;2.50;94.20;;;;;;5007104;28;20465;-79
2021/04/08 07:23:10;;;;;;;7.93;5.07;;;2.60;94.50;;;;;;5011556;28;20042;-79
2021/04/08 07:25:36;;;;;;;17.25;7.63;;;2.70;94.20;;;;;;4982034;28;21001;-80
2021/04/08 07:28:25;;;;;;;18.67;9.10;;;2.80;94.30;;;;;;5016677;28;20091;-79
2021/04/08 07:30:50;;;;;;;17.17;6.30;;;2.90;94.10;;;;;;5013543;28;20041;-81
2021/04/08 07:33:16;;;;;;;8.93;4.15;;;3.00;93.70;;;;;;4994738;28;20100;-76
2021/04/08 07:35:42;;;;;;;11.75;6.13;;;3.10;94.10;;;;;;5006127;28;20481;-80
2021/04/08 07:38:07;;;;;;;7.72;5.63;;;3.10;93.60;;;;;;4997779;28;20091;-80
2021/04/08 07:40:33;;;;;;;22.05;9.23;;;3.20;94.30;;;;;;4999638;28;20487;-80
2021/04/08 07:43:11;;;;;;;15.35;7.88;;;3.40;93.70;;;;;;4996304;28;20022;-80
2021/04/08 07:45:37;;;;;;;7.00;3.75;;;3.50;93.40;;;;;;4989282;28;20034;-80
2021/04/08 07:48:07;;;;;;;12.80;6.72;;;3.50;92.40;;;;;;5010753;28;20037;-79
2021/04/08 07:50:36;;;;;;;14.50;6.10;;;3.80;92.80;;;;;;4988773;28;20397;-80
2021/04/08 07:53:01;;;;;;;16.95;6.80;;;4.00;93.20;;;;;;4988634;28;20040;-80
2021/04/08 07:55:30;;;;;;;8.50;4.22;;;4.10;92.50;;;;;;5012560;28;20026;-79
2021/04/08 07:57:55;;;;;;;10.73;5.60;;;4.20;91.80;;;;;;5023075;28;20034;-79
2021/04/08 08:00:23;;;;;;;10.52;6.47;;;4.30;92.40;;;;;;4992684;28;20064;-78
2021/04/08 08:02:49;;;;;;;18.92;7.50;;;4.40;92.30;;;;;;5000743;28;20147;-78
2021/04/08 08:05:18;;;;;;;14.98;6.88;;;4.60;91.60;;;;;;5011170;28;20033;-78
2021/04/08 08:07:44;;;;;;;15.45;5.78;;;4.90;92.10;;;;;;5009564;28;20034;-77
2021/04/08 08:10:20;;;;;;;13.02;6.25;;;4.90;91.60;;;;;;4994655;28;20037;-79
2021/04/08 08:12:46;;;;;;;;;;;5.30;92.80;;;;;;4993328;28;20044;-78
2021/04/08 08:15:26;;;;;;;12.33;7.10;;;5.40;90.30;;;;;;5001204;28;20016;-79
2021/04/08 08:17:52;;;;;;;8.50;5.60;;;5.40;90.80;;;;;;4988976;28;20041;-79
2021/04/08 08:20:17;;;;;;;11.70;4.55;;;5.70;91.50;;;;;;4978233;28;20447;-78
2021/04/08 08:22:43;;;;;;;14.15;5.25;;;6.00;91.10;;;;;;4996512;28;20042;-77
2021/04/08 08:25:09;;;;;;;13.45;5.75;;;6.10;90.20;;;;;;4992351;28;20029;-78
2021/04/08 08:27:45;;;;;;;12.55;6.13;;;6.20;91.00;;;;;;4979832;28;20034;-78
2021/04/08 08:30:14;;;;;;;10.35;5.07;;;6.40;90.70;;;;;;5010193;28;20037;-78
2021/04/08 08:33:04;;;;;;;17.40;7.32;;;6.80;93.50;;;;;;4983521;28;20033;-78
2021/04/08 08:35:29;;;;;;;8.70;4.28;;;7.00;91.60;;;;;;5001092;28;20477;-79
2021/04/08 08:38:08;;;;;;;12.70;5.80;;;7.20;91.80;;;;;;5010170;28;20109;-77
2021/04/08 08:40:34;;;;;;;6.82;3.85;;;7.20;91.40;;;;;;4997248;28;20034;-78
2021/04/08 08:42:59;;;;;;;4.93;3.55;;;7.30;90.80;;;;;;5009756;28;20053;-78
2021/04/08 08:45:25;;;;;;;12.82;4.85;;;7.30;90.30;;;;;;4995372;28;20038;-79
2021/04/08 08:47:50;;;;;;;7.50;4.13;;;7.40;92.10;;;;;;4992974;28;20041;-79
2021/04/08 08:50:17;;;;;;;8.93;4.05;;;7.40;90.20;;;;;;4985593;28;20038;-79
2021/04/08 08:52:43;;;;;;;10.60;4.25;;;7.80;94.20;;;;;;4982821;28;20049;-78
2021/04/08 08:55:11;;;;;;;8.48;3.08;;;7.80;92.40;;;;;;4999741;28;20036;-78
2021/04/08 08:57:40;;;;;;;12.75;4.55;;;7.80;90.20;;;;;;4999950;28;20044;-79
2021/04/08 09:00:07;;;;;;;6.57;3.50;;;7.60;85.90;;;;;;5010106;28;20488;-78
2021/04/08 09:02:37;;;;;;;7.72;3.15;;;8.00;93.30;;;;;;4970940;28;20508;-78
2021/04/08 09:05:03;;;;;;;8.05;3.80;;;8.50;92.00;;;;;;4984974;28;20052;-78
2021/04/08 09:07:29;;;;;;;6.07;3.13;;;8.30;88.80;;;;;;4995447;28;20026;-78
2021/04/08 09:10:00;;;;;;;6.35;3.05;;;8.20;85.30;;;;;;4966952;28;20033;-78
2021/04/08 09:12:26;;;;;;;6.10;3.00;;;8.30;89.30;;;;;;4978984;28;20027;-78
2021/04/08 09:14:53;;;;;;;3.25;2.15;;;8.60;91.20;;;;;;5012378;28;20049;-79
2021/04/08 09:17:43;;;;;;;6.07;3.47;;;8.70;89.00;;;;;;5013465;28;20473;-78
2021/04/08 09:20:18;;;;;;;8.15;3.75;;;8.50;83.80;;;;;;4994527;28;20033;-78
2021/04/08 09:23:02;;;;;;;8.63;2.90;;;8.80;91.60;;;;;;4986027;28;20125;-79
2021/04/08 09:25:34;;;;;;;4.10;1.70;;;9.00;92.20;;;;;;4997083;28;20113;-79
2021/04/08 09:28:08;;;;;;;6.95;3.35;;;8.70;81.90;;;;;;5012945;28;20112;-79
2021/04/08 09:30:50;;;;;;;6.85;3.92;;;8.80;83.70;;;;;;4980158;28;20045;-79
2021/04/08 09:33:16;;;;;;;3.50;2.42;;;9.10;90.30;;;;;;4989393;28;20049;-79
2021/04/08 09:35:43;;;;;;;5.88;2.47;;;8.90;79.70;;;;;;4981091;28;20143;-78
2021/04/08 09:38:08;;;;;;;12.52;3.53;;;8.70;75.90;;;;;;4986036;28;20041;-78
2021/04/08 09:40:36;;;;;;;9.30;4.05;;;8.60;78.30;;;;;;5009701;28;20033;-79
2021/04/08 09:43:06;;;;;;;4.82;2.60;;;9.20;85.40;;;;;;5004969;28;20042;-78
2021/04/08 09:45:33;;;;;;;13.25;4.47;;;9.20;83.70;;;;;;5000342;28;20026;-79
2021/04/08 09:48:08;;;;;;;5.28;2.70;;;9.40;90.90;;;;;;4979900;28;20030;-79
2021/04/08 09:50:47;;;;;;;7.07;3.00;;;8.90;77.50;;;;;;5006583;28;20044;-78
2021/04/08 09:53:17;;;;;;;8.88;2.22;;;9.40;90.20;;;;;;4997389;28;20026;-79
2021/04/08 09:55:57;;;;;;;4.07;2.40;;;9.50;83.30;;;;;;4996756;28;20034;-78
2021/04/08 09:58:33;;;;;;;6.68;3.10;;;9.70;84.50;;;;;;4984148;28;20113;-79
2021/04/08 10:00:59;;;;;;;;;;;9.60;87.30;;;;;;5012364;28;20050;-78
2021/04/08 10:03:35;;;;;;;5.55;2.58;;;9.70;87.10;;;;;;4993794;28;19965;-78
2021/04/08 10:06:01;;;;;;;;;;;9.30;76.60;;;;;;4989669;28;20031;-77
2021/04/08 10:08:37;;;;;;;7.40;1.90;;;9.60;90.50;;;;;;4995299;28;19920;-78
2021/04/08 10:11:02;;;;;;;1.77;1.48;;;9.20;75.60;;;;;;5009885;28;20062;-78
2021/04/08 10:13:34;;;;;;;3.67;2.10;;;9.10;78.70;;;;;;4995205;28;20467;-78
2021/04/08 10:16:09;;;;;;;2.63;1.35;;;8.90;77.40;;;;;;5011625;28;20108;-78
2021/04/08 10:18:34;;;;;;;3.95;1.67;;;8.70;75.00;;;;;;4997392;28;20022;-78
2021/04/08 10:21:02;;;;;;;2.60;2.10;;;8.40;73.90;;;;;;4996420;28;20037;-78
2021/04/08 10:23:34;;;;;;;5.50;2.65;;;8.90;79.60;;;;;;4988078;28;20088;-78
2021/04/08 10:26:06;;;;;;;3.67;1.73;;;8.70;74.20;;;;;;5002423;28;20026;-78
2021/04/08 10:28:45;;;;;;;3.85;2.55;;;8.40;72.90;;;;;;4982982;28;20065;-78
2021/04/08 10:31:18;;;;;;;3.22;2.25;;;8.70;72.30;;;;;;5002019;28;20041;-78
2021/04/08 10:33:47;;;;;;;3.58;2.15;;;8.80;71.10;;;;;;4989890;28;20037;-78
2021/04/08 10:36:29;;;;;;;3.95;2.30;;;8.80;70.80;;;;;;4993391;28;20052;-78
2021/04/08 10:39:17;;;;;;;4.47;2.33;;;8.70;73.20;;;;;;4996335;28;20038;-77
2021/04/08 10:41:58;;;;;;;3.80;2.10;;;9.00;72.60;;;;;;4996176;28;20038;-78
2021/04/08 10:44:31;;;;;;;4.70;2.85;;;9.30;72.90;;;;;;4999713;28;20034;-78
2021/04/08 10:47:11;;;;;;;4.50;3.20;;;8.90;68.20;;;;;;5011769;28;20099;-78
2021/04/08 10:49:57;;;;;;;4.70;3.00;;;9.50;80.40;;;;;;4993879;28;20045;-78
2021/04/08 10:52:30;;;;;;;5.90;4.05;;;9.60;80.10;;;;;;4991291;28;20033;-78
2021/04/08 10:55:07;;;;;;;9.68;2.65;;;10.20;82.00;;;;;;5011693;28;20117;-79
2021/04/08 10:57:33;;;;;;;4.28;3.25;;;10.00;75.80;;;;;;5010007;28;20038;-80
2021/04/08 10:59:58;;;;;;;6.75;3.13;;;9.70;70.40;;;;;;4288647;28;9999948;-79
2021/04/08 11:02:28;;;;;;;5.07;3.60;;;9.40;67.30;;;;;;5009151;28;20544;-79
2021/04/08 11:04:56;;;;;;;3.45;2.55;;;9.30;67.70;;;;;;4997970;28;20038;-80
2021/04/08 11:07:21;;;;;;;4.70;2.85;;;9.50;67.30;;;;;;4990864;28;20042;-79
2021/04/08 11:09:48;;;;;;;4.40;3.17;;;9.70;65.90;;;;;;5008462;28;20549;-79
2021/04/08 11:12:24;;;;;;;7.10;2.58;;;9.70;64.30;;;;;;4976379;28;20736;-79
2021/04/08 11:14:54;;;;;;;5.60;2.08;;;9.60;62.80;;;;;;5025304;28;20833;-79
2021/04/08 11:17:20;;;;;;;4.82;3.08;;;9.40;62.40;;;;;;4986983;28;20041;-79
2021/04/08 11:19:47;;;;;;;5.93;3.30;;;9.50;61.70;;;;;;4968982;28;20038;-79
2021/04/08 11:22:14;;;;;;;2.78;1.73;;;10.00;75.30;;;;;;4989298;28;20053;-79
2021/04/08 11:24:40;;;;;;;3.67;2.47;;;10.00;66.80;;;;;;4967945;28;20762;-79
2021/04/08 11:27:06;;;;;;;5.97;2.65;;;10.20;64.40;;;;;;4987557;28;20050;-80
2021/04/08 11:29:31;;;;;;;5.18;2.80;;;10.00;58.70;;;;;;4977540;28;20066;-80
2021/04/08 11:32:08;;;;;;;2.80;1.52;;;10.30;61.30;;;;;;4995741;28;20064;-79
2021/04/08 11:34:41;;;;;;;4.97;3.03;;;10.20;55.50;;;;;;5009376;28;20061;-78
2021/04/08 11:37:07;;;;;;;6.35;2.83;;;10.40;55.80;;;;;;5002499;28;20722;-79
2021/04/08 11:39:32;;;;;;;2.60;1.65;;;10.30;56.80;;;;;;4981663;28;20061;-79
2021/04/08 11:42:35;;;;;;;3.88;2.65;;;10.30;59.30;;;;;;4972127;28;20069;-79
2021/04/08 11:45:20;;;;;;;4.45;3.35;;;10.80;60.30;;;;;;5010154;28;20041;-78
2021/04/08 11:48:01;;;;;;;3.38;1.73;;;10.60;56.10;;;;;;4981883;28;20524;-79
2021/04/08 11:50:29;;;;;;;3.88;1.95;;;10.90;57.90;;;;;;5004476;28;20052;-80
2021/04/08 11:53:32;;;;;;;2.05;1.77;;;10.70;56.90;;;;;;4999999;28;20184;-79
2021/04/08 11:56:00;;;;;;;3.70;2.17;;;11.00;62.20;;;;;;5002126;28;20375;-79
2021/04/08 11:58:35;;;;;;;5.95;2.35;;;11.20;58.60;;;;;;5002677;28;20029;-79
2021/04/08 12:01:10;;;;;;;7.13;3.83;;;11.10;62.10;;;;;;4992691;28;20064;-79
2021/04/08 12:03:45;;;;;;;3.70;2.72;;;11.10;62.70;;;;;;4992890;28;20038;-79
2021/04/08 12:06:12;;;;;;;2.78;2.03;;;11.30;59.00;;;;;;5005495;28;20140;-79
2021/04/08 12:08:58;;;;;;;7.05;4.22;;;11.40;59.40;;;;;;4984007;28;20761;-79
2021/04/08 12:11:24;;;;;;;;;;;11.30;58.00;;;;;;4989902;28;20035;-79
2021/04/08 12:14:03;;;;;;;3.90;2.83;;;11.10;55.10;;;;;;4995899;28;19909;-80
2021/04/08 12:16:29;;;;;;;5.68;2.85;;;11.20;56.40;;;;;;4993950;28;20034;-79
2021/04/08 12:18:55;;;;;;;4.80;2.30;;;10.90;54.30;;;;;;4992183;28;20041;-79
2021/04/08 12:21:20;;;;;;;5.28;2.78;;;10.80;54.30;;;;;;4977969;28;20034;-79
2021/04/08 12:23:46;;;;;;;6.68;2.47;;;10.70;55.10;;;;;;4967140;28;20046;-79
2021/04/08 12:26:12;;;;;;;3.72;2.58;;;10.60;52.50;;;;;;4976269;28;20071;-79
2021/04/08 12:28:39;;;;;;;6.57;3.50;;;10.60;52.90;;;;;;4979885;28;20030;-79
2021/04/08 12:31:04;;;;;;;3.58;2.53;;;11.10;57.40;;;;;;4986645;28;20042;-79
2021/04/08 12:33:34;;;;;;;5.65;2.92;;;10.80;54.60;;;;;;4980898;28;20491;-79
2021/04/08 12:36:01;;;;;;;7.45;2.70;;;10.60;54.60;;;;;;4995020;28;20034;-79
2021/04/08 12:38:27;;;;;;;7.57;4.35;;;10.90;56.40;;;;;;4981310;28;20045;-79
2021/04/08 12:40:53;;;;;;;5.70;4.13;;;11.10;59.40;;;;;;5011392;28;20030;-78
2021/04/08 12:43:18;;;;;;;4.53;3.97;;;11.10;60.10;;;;;;4976717;28;20082;-79
2021/04/08 12:45:44;;;;;;;8.45;4.28;;;11.10;59.60;;;;;;4989357;28;20044;-79
2021/04/08 12:48:10;;;;;;;3.35;2.50;;;11.00;55.70;;;;;;4999535;28;20029;-79
2021/04/08 12:50:43;;;;;;;5.35;4.15;;;11.20;58.40;;;;;;4994860;28;20037;-78
2021/04/08 12:53:09;;;;;;;5.63;3.67;;;11.20;57.70;;;;;;4985597;28;20398;-79
2021/04/08 12:55:35;;;;;;;4.13;2.75;;;11.50;57.10;;;;;;4968937;28;20064;-79
2021/04/08 12:58:00;;;;;;;6.30;3.75;;;11.00;54.70;;;;;;4996915;28;20034;-79
2021/04/08 13:00:26;;;;;;;4.53;3.10;;;10.90;52.80;;;;;;4990737;28;20029;-79